WMT5PL LHBP-LIMC
Flight info
| Callsign | WMT5PL |
|---|---|
| Flight time | N/A |
| Altitude | 38000 |
| Route | GILEP DCT ZOLKU DCT SUNIS DCT DETSA DCT NAXAV DCT RENTA DCT ATPED DCT LUSIL DCT EVRIP |
| Aircraft | A21N/M-SDE2E3FGHIRWXY/LB1 |
Departure
| Time | N/A |
|---|---|
| Airport | Budapest Liszt Ferenc International Airport (LHBP) |
Arrival
| Time | 2026-05-03 21:10 |
|---|---|
| Airport | Milan Malpensa International Airport (LIMC) |
| Time | Latitude | Longitude | Altitude | Speed | Heading |
|---|---|---|---|---|---|
| 2026-05-03 20:15 | 47.07771 | 15.42209 | 38084 ft | 432 kts | 266° |
| 2026-05-03 20:15 | 47.07128 | 15.33505 | 38087 ft | 432 kts | 266° |
| 2026-05-03 20:15 | 47.06801 | 15.29108 | 37867 ft | 431 kts | 266° |
| 2026-05-03 20:16 | 47.06475 | 15.24744 | 38029 ft | 433 kts | 266° |
| 2026-05-03 20:16 | 47.05746 | 15.16045 | 38084 ft | 434 kts | 261° |
| 2026-05-03 20:17 | 47.04336 | 15.07418 | 38108 ft | 435 kts | 258° |
| 2026-05-03 20:17 | 47.02857 | 14.98868 | 38109 ft | 434 kts | 258° |
| 2026-05-03 20:18 | 47.01384 | 14.90277 | 38118 ft | 434 kts | 258° |
| 2026-05-03 20:18 | 46.99926 | 14.81746 | 38119 ft | 434 kts | 258° |
| 2026-05-03 20:19 | 46.98464 | 14.73221 | 38122 ft | 433 kts | 258° |
| 2026-05-03 20:19 | 46.97004 | 14.64730 | 38125 ft | 433 kts | 258° |
| 2026-05-03 20:20 | 46.95536 | 14.56232 | 38125 ft | 433 kts | 258° |
| 2026-05-03 20:20 | 46.94051 | 14.47682 | 38127 ft | 433 kts | 258° |
| 2026-05-03 20:21 | 46.92569 | 14.39182 | 38134 ft | 433 kts | 258° |
| 2026-05-03 20:21 | 46.91081 | 14.30697 | 38139 ft | 432 kts | 257° |
| 2026-05-03 20:22 | 46.89617 | 14.22383 | 38139 ft | 432 kts | 257° |
| 2026-05-03 20:22 | 46.88146 | 14.14071 | 38100 ft | 432 kts | 257° |
| 2026-05-03 20:23 | 46.86641 | 14.05597 | 38142 ft | 432 kts | 257° |
| 2026-05-03 20:23 | 46.85893 | 14.01402 | 38398 ft | 432 kts | 257° |
| 2026-05-03 20:23 | 46.85135 | 13.97161 | 38037 ft | 431 kts | 257° |
| 2026-05-03 20:24 | 46.83618 | 13.88710 | 38149 ft | 432 kts | 257° |
| 2026-05-03 20:24 | 46.82092 | 13.80248 | 38169 ft | 432 kts | 257° |
| 2026-05-03 20:25 | 46.80567 | 13.71826 | 38171 ft | 431 kts | 257° |
| 2026-05-03 20:25 | 46.79040 | 13.63435 | 38174 ft | 431 kts | 257° |
| 2026-05-03 20:26 | 46.77504 | 13.55029 | 38176 ft | 430 kts | 257° |
| 2026-05-03 20:26 | 46.75962 | 13.46635 | 38179 ft | 430 kts | 257° |
| 2026-05-03 20:27 | 46.74422 | 13.38284 | 38167 ft | 429 kts | 257° |
| 2026-05-03 20:27 | 46.72864 | 13.29875 | 38157 ft | 430 kts | 256° |
| 2026-05-03 20:28 | 46.71307 | 13.21504 | 38153 ft | 429 kts | 256° |
| 2026-05-03 20:28 | 46.69747 | 13.13160 | 38144 ft | 429 kts | 256° |
| 2026-05-03 20:29 | 46.68178 | 13.04804 | 38146 ft | 429 kts | 256° |
| 2026-05-03 20:29 | 46.66607 | 12.96482 | 38144 ft | 428 kts | 256° |
| 2026-05-03 20:30 | 46.65029 | 12.88156 | 38157 ft | 427 kts | 256° |
| 2026-05-03 20:30 | 46.63452 | 12.79869 | 38167 ft | 427 kts | 256° |
| 2026-05-03 20:31 | 46.61861 | 12.71539 | 38160 ft | 427 kts | 256° |
| 2026-05-03 20:31 | 46.60272 | 12.63261 | 38165 ft | 427 kts | 256° |
| 2026-05-03 20:32 | 46.58678 | 12.54989 | 38164 ft | 426 kts | 256° |
| 2026-05-03 20:32 | 46.57079 | 12.46731 | 38173 ft | 426 kts | 256° |
| 2026-05-03 20:33 | 46.55477 | 12.38496 | 38169 ft | 426 kts | 256° |
| 2026-05-03 20:33 | 46.53864 | 12.30241 | 38163 ft | 425 kts | 255° |
| 2026-05-03 20:34 | 46.52259 | 12.22055 | 38164 ft | 424 kts | 255° |
| 2026-05-03 20:34 | 46.50641 | 12.13835 | 38164 ft | 425 kts | 255° |
| 2026-05-03 20:35 | 46.49017 | 12.05627 | 38165 ft | 425 kts | 255° |
| 2026-05-03 20:35 | 46.47385 | 11.97413 | 38164 ft | 425 kts | 255° |
| 2026-05-03 20:36 | 46.45746 | 11.89197 | 38168 ft | 424 kts | 255° |
| 2026-05-03 20:36 | 46.44108 | 11.81020 | 38165 ft | 423 kts | 255° |
| 2026-05-03 20:37 | 46.42475 | 11.72903 | 38167 ft | 423 kts | 255° |
| 2026-05-03 20:37 | 46.40828 | 11.64743 | 38162 ft | 424 kts | 255° |
| 2026-05-03 20:38 | 46.39173 | 11.56587 | 38157 ft | 424 kts | 255° |
| 2026-05-03 20:38 | 46.37508 | 11.48409 | 38155 ft | 423 kts | 255° |
| 2026-05-03 20:39 | 46.35844 | 11.40269 | 38150 ft | 423 kts | 255° |
| 2026-05-03 20:39 | 46.34171 | 11.32127 | 38136 ft | 424 kts | 254° |
| 2026-05-03 20:40 | 46.32501 | 11.24027 | 38124 ft | 423 kts | 254° |
| 2026-05-03 20:40 | 46.30820 | 11.15899 | 38128 ft | 424 kts | 254° |
| 2026-05-03 20:41 | 46.29123 | 11.07735 | 38141 ft | 424 kts | 254° |
| 2026-05-03 20:41 | 46.27427 | 10.99609 | 38152 ft | 423 kts | 254° |
| 2026-05-03 20:42 | 46.25737 | 10.91549 | 37987 ft | 422 kts | 254° |
| 2026-05-03 20:42 | 46.24881 | 10.87471 | 37185 ft | 425 kts | 254° |
| 2026-05-03 20:42 | 46.24031 | 10.83432 | 36218 ft | 430 kts | 254° |
| 2026-05-03 20:42 | 46.23152 | 10.79261 | 35340 ft | 435 kts | 254° |
| 2026-05-03 20:43 | 46.22283 | 10.75149 | 34526 ft | 432 kts | 254° |
| 2026-05-03 20:43 | 46.21413 | 10.71041 | 33779 ft | 427 kts | 254° |
| 2026-05-03 20:43 | 46.20555 | 10.66998 | 33129 ft | 423 kts | 253° |
| 2026-05-03 20:43 | 46.19696 | 10.62963 | 32504 ft | 421 kts | 253° |
| 2026-05-03 20:44 | 46.18843 | 10.58963 | 31890 ft | 420 kts | 253° |
| 2026-05-03 20:44 | 46.17988 | 10.54959 | 31459 ft | 415 kts | 253° |
| 2026-05-03 20:44 | 46.17143 | 10.51016 | 31089 ft | 414 kts | 253° |
| 2026-05-03 20:44 | 46.16280 | 10.47080 | 30678 ft | 412 kts | 251° |
| 2026-05-03 20:45 | 46.15286 | 10.43222 | 30225 ft | 409 kts | 248° |
| 2026-05-03 20:45 | 46.14156 | 10.39500 | 29790 ft | 407 kts | 245° |
| 2026-05-03 20:45 | 46.12908 | 10.35890 | 29332 ft | 404 kts | 244° |
| 2026-05-03 20:45 | 46.11646 | 10.32322 | 28882 ft | 400 kts | 243° |
| 2026-05-03 20:46 | 46.10387 | 10.28773 | 28421 ft | 397 kts | 243° |
| 2026-05-03 20:46 | 46.09131 | 10.25233 | 27947 ft | 394 kts | 243° |
| 2026-05-03 20:46 | 46.07910 | 10.21792 | 27515 ft | 390 kts | 243° |
| 2026-05-03 20:46 | 46.06678 | 10.18320 | 27074 ft | 386 kts | 243° |
| 2026-05-03 20:47 | 46.05437 | 10.14942 | 26638 ft | 383 kts | 240° |
| 2026-05-03 20:47 | 46.03973 | 10.11756 | 26182 ft | 380 kts | 234° |
| 2026-05-03 20:47 | 46.02314 | 10.08887 | 25681 ft | 379 kts | 228° |
| 2026-05-03 20:47 | 46.00473 | 10.06203 | 25165 ft | 377 kts | 226° |
| 2026-05-03 20:48 | 45.98587 | 10.03545 | 24718 ft | 373 kts | 226° |
| 2026-05-03 20:48 | 45.96759 | 10.00981 | 24279 ft | 370 kts | 225° |
| 2026-05-03 20:48 | 45.94927 | 9.98411 | 23807 ft | 367 kts | 226° |
| 2026-05-03 20:48 | 45.93104 | 9.95853 | 23354 ft | 364 kts | 226° |
| 2026-05-03 20:49 | 45.91305 | 9.93328 | 22907 ft | 361 kts | 226° |
| 2026-05-03 20:49 | 45.89534 | 9.90841 | 22450 ft | 359 kts | 225° |
| 2026-05-03 20:49 | 45.87756 | 9.88349 | 21975 ft | 357 kts | 226° |
| 2026-05-03 20:49 | 45.85986 | 9.85868 | 21512 ft | 355 kts | 225° |
| 2026-05-03 20:50 | 45.84232 | 9.83414 | 21062 ft | 353 kts | 225° |
| 2026-05-03 20:50 | 45.82482 | 9.80968 | 20590 ft | 351 kts | 226° |
| 2026-05-03 20:50 | 45.80741 | 9.78532 | 20121 ft | 350 kts | 225° |
| 2026-05-03 20:50 | 45.79019 | 9.76126 | 19658 ft | 349 kts | 225° |
| 2026-05-03 20:51 | 45.77285 | 9.73707 | 19193 ft | 347 kts | 225° |
| 2026-05-03 20:51 | 45.75565 | 9.71309 | 18734 ft | 345 kts | 225° |
| 2026-05-03 20:51 | 45.73844 | 9.68912 | 18273 ft | 344 kts | 225° |
| 2026-05-03 20:51 | 45.72163 | 9.66573 | 17822 ft | 342 kts | 225° |
| 2026-05-03 20:52 | 45.70454 | 9.64196 | 17367 ft | 340 kts | 225° |
| 2026-05-03 20:52 | 45.68759 | 9.61839 | 16930 ft | 338 kts | 225° |
| 2026-05-03 20:52 | 45.67096 | 9.59531 | 16500 ft | 335 kts | 225° |
| 2026-05-03 20:52 | 45.65424 | 9.57212 | 16055 ft | 334 kts | 225° |
| 2026-05-03 20:53 | 45.63771 | 9.54922 | 15618 ft | 331 kts | 224° |
| 2026-05-03 20:53 | 45.62129 | 9.52649 | 15180 ft | 329 kts | 224° |
| 2026-05-03 20:53 | 45.60488 | 9.50379 | 14740 ft | 327 kts | 224° |
| 2026-05-03 20:53 | 45.58871 | 9.48143 | 14316 ft | 325 kts | 224° |
| 2026-05-03 20:54 | 45.57780 | 9.46637 | 14022 ft | 323 kts | 224° |
| 2026-05-03 20:54 | 45.54034 | 9.41473 | 12994 ft | 319 kts | 224° |
| 2026-05-03 20:54 | 45.52451 | 9.39294 | 12553 ft | 317 kts | 224° |
| 2026-05-03 20:55 | 45.50870 | 9.37120 | 12111 ft | 316 kts | 224° |
| 2026-05-03 20:55 | 45.49295 | 9.34956 | 11672 ft | 315 kts | 223° |
| 2026-05-03 20:55 | 45.47726 | 9.32799 | 11237 ft | 313 kts | 223° |
| 2026-05-03 20:55 | 45.46171 | 9.30664 | 10804 ft | 312 kts | 223° |
| 2026-05-03 20:56 | 45.44618 | 9.28533 | 10413 ft | 308 kts | 223° |
| 2026-05-03 20:56 | 45.43113 | 9.26468 | 10277 ft | 296 kts | 222° |
| 2026-05-03 20:56 | 45.41660 | 9.24478 | 10144 ft | 281 kts | 222° |
| 2026-05-03 20:56 | 45.40288 | 9.22601 | 9860 ft | 272 kts | 222° |
| 2026-05-03 20:57 | 45.38926 | 9.20738 | 9482 ft | 267 kts | 222° |
| 2026-05-03 20:57 | 45.37605 | 9.18933 | 9128 ft | 261 kts | 222° |
| 2026-05-03 20:57 | 45.36323 | 9.17185 | 8805 ft | 255 kts | 222° |
| 2026-05-03 20:57 | 45.35051 | 9.15449 | 8568 ft | 248 kts | 222° |
| 2026-05-03 20:58 | 45.33826 | 9.13778 | 8332 ft | 244 kts | 222° |
| 2026-05-03 20:58 | 45.32602 | 9.12111 | 8045 ft | 240 kts | 222° |
| 2026-05-03 20:58 | 45.31422 | 9.10502 | 7768 ft | 235 kts | 222° |
| 2026-05-03 20:58 | 45.30254 | 9.08912 | 7597 ft | 228 kts | 222° |
| 2026-05-03 20:59 | 45.29111 | 9.07357 | 7317 ft | 226 kts | 222° |
| 2026-05-03 20:59 | 45.27973 | 9.05812 | 6989 ft | 226 kts | 222° |
| 2026-05-03 20:59 | 45.26844 | 9.04278 | 6680 ft | 225 kts | 222° |
| 2026-05-03 20:59 | 45.25728 | 9.02765 | 6425 ft | 223 kts | 223° |
| 2026-05-03 21:00 | 45.24601 | 9.01236 | 6254 ft | 223 kts | 223° |
| 2026-05-03 21:00 | 45.24225 | 9.00725 | 6209 ft | 223 kts | 223° |
| 2026-05-03 21:00 | 45.22510 | 8.97991 | 5971 ft | 224 kts | 244° |
| 2026-05-03 21:00 | 45.22080 | 8.95877 | 5990 ft | 227 kts | 257° |
| 2026-05-03 21:01 | 45.21795 | 8.93661 | 5980 ft | 228 kts | 258° |
| 2026-05-03 21:01 | 45.21519 | 8.91465 | 5991 ft | 228 kts | 258° |
| 2026-05-03 21:01 | 45.21231 | 8.89243 | 5997 ft | 228 kts | 257° |
| 2026-05-03 21:01 | 45.21216 | 8.87009 | 5958 ft | 232 kts | 285° |
| 2026-05-03 21:02 | 45.22037 | 8.85071 | 5971 ft | 235 kts | 318° |
| 2026-05-03 21:02 | 45.23476 | 8.84000 | 5979 ft | 235 kts | 345° |
| 2026-05-03 21:02 | 45.25081 | 8.83553 | 5991 ft | 236 kts | 351° |
| 2026-05-03 21:02 | 45.26689 | 8.83225 | 5989 ft | 232 kts | 352° |
| 2026-05-03 21:03 | 45.28270 | 8.82894 | 5989 ft | 225 kts | 351° |
| 2026-05-03 21:03 | 45.29811 | 8.82539 | 5995 ft | 225 kts | 350° |
| 2026-05-03 21:03 | 45.31361 | 8.82152 | 6003 ft | 225 kts | 349° |
| 2026-05-03 21:03 | 45.32883 | 8.81750 | 6002 ft | 225 kts | 349° |
| 2026-05-03 21:04 | 45.34433 | 8.81324 | 5932 ft | 225 kts | 348° |
| 2026-05-03 21:04 | 45.35955 | 8.80897 | 5659 ft | 223 kts | 348° |
| 2026-05-03 21:04 | 45.37475 | 8.80467 | 5382 ft | 222 kts | 348° |
| 2026-05-03 21:04 | 45.38996 | 8.80034 | 5086 ft | 220 kts | 348° |
| 2026-05-03 21:05 | 45.40485 | 8.79612 | 4849 ft | 214 kts | 349° |
| 2026-05-03 21:05 | 45.41910 | 8.79210 | 4594 ft | 208 kts | 349° |
| 2026-05-03 21:05 | 45.43325 | 8.78812 | 4288 ft | 203 kts | 349° |
| 2026-05-03 21:05 | 45.44689 | 8.78430 | 4000 ft | 198 kts | 349° |
| 2026-05-03 21:06 | 45.46032 | 8.78055 | 3722 ft | 193 kts | 349° |
| 2026-05-03 21:06 | 45.47323 | 8.77695 | 3459 ft | 187 kts | 349° |
| 2026-05-03 21:06 | 45.48591 | 8.77342 | 3210 ft | 181 kts | 350° |
| 2026-05-03 21:06 | 45.49797 | 8.77007 | 2977 ft | 173 kts | 350° |
| 2026-05-03 21:07 | 45.50937 | 8.76691 | 2761 ft | 158 kts | 350° |
| 2026-05-03 21:07 | 45.51981 | 8.76402 | 2575 ft | 152 kts | 349° |
| 2026-05-03 21:07 | 45.52978 | 8.76127 | 2375 ft | 141 kts | 349° |
| 2026-05-03 21:07 | 45.53934 | 8.75863 | 2196 ft | 139 kts | 349° |
| 2026-05-03 21:08 | 45.54878 | 8.75613 | 2021 ft | 138 kts | 349° |
| 2026-05-03 21:08 | 45.55821 | 8.75357 | 1851 ft | 138 kts | 347° |
| 2026-05-03 21:08 | 45.56772 | 8.75086 | 1663 ft | 138 kts | 348° |
| 2026-05-03 21:08 | 45.57718 | 8.74826 | 1465 ft | 139 kts | 348° |
| 2026-05-03 21:09 | 45.58649 | 8.74571 | 1295 ft | 137 kts | 347° |
| 2026-05-03 21:09 | 45.59586 | 8.74303 | 1116 ft | 137 kts | 348° |
| 2026-05-03 21:09 | 45.60524 | 8.74038 | 952 ft | 138 kts | 348° |
| 2026-05-03 21:09 | 45.61473 | 8.73786 | 772 ft | 137 kts | 347° |
| 2026-05-03 21:10 | 45.62340 | 8.73545 | 715 ft | 110 kts | 349° |
| 2026-05-03 21:10 | 45.62888 | 8.73393 | 727 ft | 46 kts | 349° |
| 2026-05-03 21:10 | 45.63119 | 8.73279 | 733 ft | 30 kts | 328° |
| 2026-05-03 21:10 | 45.63232 | 8.73135 | 736 ft | 17 kts | 303° |
| 2026-05-03 21:11 | 45.63296 | 8.72998 | 738 ft | 15 kts | 304° |
| 2026-05-03 21:11 | 45.63354 | 8.72872 | 740 ft | 14 kts | 304° |
| 2026-05-03 21:11 | 45.63393 | 8.72748 | 742 ft | 13 kts | 270° |
| 2026-05-03 21:11 | 45.63347 | 8.72636 | 741 ft | 13 kts | 217° |
| 2026-05-03 21:12 | 45.63263 | 8.72556 | 740 ft | 15 kts | 214° |
| 2026-05-03 21:12 | 45.63173 | 8.72468 | 739 ft | 16 kts | 214° |
| 2026-05-03 21:12 | 45.63080 | 8.72373 | 738 ft | 16 kts | 224° |
| 2026-05-03 21:12 | 45.63031 | 8.72244 | 737 ft | 15 kts | 258° |
| 2026-05-03 21:13 | 45.63009 | 8.72098 | 738 ft | 14 kts | 245° |
| 2026-05-03 21:13 | 45.62915 | 8.72071 | 736 ft | 15 kts | 167° |
| 2026-05-03 21:13 | 45.62800 | 8.72102 | 734 ft | 17 kts | 170° |
| 2026-05-03 21:13 | 45.62696 | 8.72102 | 732 ft | 15 kts | 221° |
| 2026-05-03 21:14 | 45.62667 | 8.71961 | 733 ft | 15 kts | 259° |
| 2026-05-03 21:14 | 45.62649 | 8.71824 | 734 ft | 12 kts | 259° |
| 2026-05-03 21:14 | 45.62649 | 8.71762 | 734 ft | 4 kts | 315° |
| 2026-05-03 21:14 | 45.62681 | 8.71735 | 734 ft | 5 kts | 327° |
| 2026-05-03 21:15 | 45.62710 | 8.71705 | 735 ft | 4 kts | 324° |
| 2026-05-03 21:15 | 45.62722 | 8.71692 | 735 ft | 0 kts | 324° |
| 2026-05-03 21:15 | 45.62724 | 8.71690 | 735 ft | 0 kts | 324° |